sensor_id;sensor_type;location;lat;lon;timestamp;pressure;altitude;pressure_sealevel;temperature
20490;BMP280;10403;54.092;12.122;2024-03-29T00:02:18;99644.16;;;9.67
20490;BMP280;10403;54.092;12.122;2024-03-29T00:04:44;99643.38;;;9.63
20490;BMP280;10403;54.092;12.122;2024-03-29T00:07:11;99644.28;;;9.62
20490;BMP280;10403;54.092;12.122;2024-03-29T00:09:37;99651.28;;;9.60
20490;BMP280;10403;54.092;12.122;2024-03-29T00:12:04;99648.69;;;9.60
20490;BMP280;10403;54.092;12.122;2024-03-29T00:14:31;99651.34;;;9.58
20490;BMP280;10403;54.092;12.122;2024-03-29T00:16:58;99660.94;;;9.58
20490;BMP280;10403;54.092;12.122;2024-03-29T00:19:24;99664.41;;;9.58
20490;BMP280;10403;54.092;12.122;2024-03-29T00:21:50;99659.22;;;9.57
20490;BMP280;10403;54.092;12.122;2024-03-29T00:24:16;99658.31;;;9.58
20490;BMP280;10403;54.092;12.122;2024-03-29T00:26:42;99666.06;;;9.61
20490;BMP280;10403;54.092;12.122;2024-03-29T00:29:09;99663.50;;;9.59
20490;BMP280;10403;54.092;12.122;2024-03-29T00:31:35;99657.44;;;9.59
20490;BMP280;10403;54.092;12.122;2024-03-29T00:34:01;99654.00;;;9.57
20490;BMP280;10403;54.092;12.122;2024-03-29T00:36:27;99667.94;;;9.56
20490;BMP280;10403;54.092;12.122;2024-03-29T00:38:54;99656.69;;;9.54
20490;BMP280;10403;54.092;12.122;2024-03-29T00:41:20;99665.41;;;9.53
20490;BMP280;10403;54.092;12.122;2024-03-29T00:43:46;99662.84;;;9.51
20490;BMP280;10403;54.092;12.122;2024-03-29T00:46:14;99667.31;;;9.48
20490;BMP280;10403;54.092;12.122;2024-03-29T00:48:41;99663.97;;;9.41
20490;BMP280;10403;54.092;12.122;2024-03-29T00:51:08;99663.88;;;9.46
20490;BMP280;10403;54.092;12.122;2024-03-29T00:53:34;99668.28;;;9.44
20490;BMP280;10403;54.092;12.122;2024-03-29T00:56:00;99667.44;;;9.42
20490;BMP280;10403;54.092;12.122;2024-03-29T00:58:27;99676.16;;;9.41
20490;BMP280;10403;54.092;12.122;2024-03-29T01:00:53;99677.88;;;9.42
20490;BMP280;10403;54.092;12.122;2024-03-29T01:03:19;99682.31;;;9.40
20490;BMP280;10403;54.092;12.122;2024-03-29T01:05:46;99654.75;;;9.30
20490;BMP280;10403;54.092;12.122;2024-03-29T01:08:12;99686.63;;;9.41
20490;BMP280;10403;54.092;12.122;2024-03-29T01:10:38;99683.16;;;9.40
20490;BMP280;10403;54.092;12.122;2024-03-29T01:13:04;99677.09;;;9.40
20490;BMP280;10403;54.092;12.122;2024-03-29T01:15:31;99687.53;;;9.40
20490;BMP280;10403;54.092;12.122;2024-03-29T01:17:57;99689.28;;;9.39
20490;BMP280;10403;54.092;12.122;2024-03-29T01:20:23;99693.66;;;9.39
20490;BMP280;10403;54.092;12.122;2024-03-29T01:22:50;99688.44;;;9.39
20490;BMP280;10403;54.092;12.122;2024-03-29T01:25:16;99699.72;;;9.39
20490;BMP280;10403;54.092;12.122;2024-03-29T01:27:43;99694.44;;;9.41
20490;BMP280;10403;54.092;12.122;2024-03-29T01:30:10;99696.19;;;9.40
20490;BMP280;10403;54.092;12.122;2024-03-29T01:32:36;99701.47;;;9.39
20490;BMP280;10403;54.092;12.122;2024-03-29T01:35:03;99698.03;;;9.37
20490;BMP280;10403;54.092;12.122;2024-03-29T01:37:30;99695.47;;;9.35
20490;BMP280;10403;54.092;12.122;2024-03-29T01:39:56;99705.06;;;9.35
20490;BMP280;10403;54.092;12.122;2024-03-29T01:42:22;99706.84;;;9.33
20490;BMP280;10403;54.092;12.122;2024-03-29T01:44:49;99692.94;;;9.32
20490;BMP280;10403;54.092;12.122;2024-03-29T01:47:17;99701.63;;;9.33
20490;BMP280;10403;54.092;12.122;2024-03-29T01:49:45;99696.41;;;9.33
20490;BMP280;10403;54.092;12.122;2024-03-29T01:52:14;99682.69;;;9.24
20490;BMP280;10403;54.092;12.122;2024-03-29T01:54:44;99698.31;;;9.26
20490;BMP280;10403;54.092;12.122;2024-03-29T01:57:11;99700.97;;;9.24
20490;BMP280;10403;54.092;12.122;2024-03-29T01:59:40;99707.00;;;9.26
20490;BMP280;10403;54.092;12.122;2024-03-29T02:02:09;99695.75;;;9.24
20490;BMP280;10403;54.092;12.122;2024-03-29T02:04:36;99689.72;;;9.21
20490;BMP280;10403;54.092;12.122;2024-03-29T02:07:03;99692.34;;;9.21
20490;BMP280;10403;54.092;12.122;2024-03-29T02:09:30;99696.75;;;9.20
20490;BMP280;10403;54.092;12.122;2024-03-29T02:11:56;99680.44;;;9.11
20490;BMP280;10403;54.092;12.122;2024-03-29T02:14:22;99680.44;;;9.11
20490;BMP280;10403;54.092;12.122;2024-03-29T02:16:48;99696.88;;;9.14
20490;BMP280;10403;54.092;12.122;2024-03-29T02:19:15;99692.56;;;9.12
20490;BMP280;10403;54.092;12.122;2024-03-29T02:21:45;99692.66;;;9.10
20490;BMP280;10403;54.092;12.122;2024-03-29T02:24:14;99697.03;;;9.08
20490;BMP280;10403;54.092;12.122;2024-03-29T02:26:42;99694.50;;;9.05
20490;BMP280;10403;54.092;12.122;2024-03-29T02:29:09;99698.88;;;9.03
20490;BMP280;10403;54.092;12.122;2024-03-29T02:31:38;99681.75;;;8.93
20490;BMP280;10403;54.092;12.122;2024-03-29T02:34:05;99698.25;;;8.94
20490;BMP280;10403;54.092;12.122;2024-03-29T02:36:33;99709.47;;;8.97
20490;BMP280;10403;54.092;12.122;2024-03-29T02:38:59;99709.50;;;8.96
20490;BMP280;10403;54.092;12.122;2024-03-29T02:41:26;99708.72;;;8.92
20490;BMP280;10403;54.092;12.122;2024-03-29T02:43:54;99717.50;;;8.89
20490;BMP280;10403;54.092;12.122;2024-03-29T02:46:20;99708.00;;;8.85
20490;BMP280;10403;54.092;12.122;2024-03-29T02:48:46;99715.84;;;8.85
20490;BMP280;10403;54.092;12.122;2024-03-29T02:51:13;99711.53;;;8.83
20490;BMP280;10403;54.092;12.122;2024-03-29T02:53:40;99706.47;;;8.77
20490;BMP280;10403;54.092;12.122;2024-03-29T02:56:06;99719.47;;;8.78
20490;BMP280;10403;54.092;12.122;2024-03-29T02:58:36;99710.09;;;8.71
20490;BMP280;10403;54.092;12.122;2024-03-29T03:01:08;99723.03;;;8.74
20490;BMP280;10403;54.092;12.122;2024-03-29T03:03:35;99724.81;;;8.72
20490;BMP280;10403;54.092;12.122;2024-03-29T03:06:02;99722.31;;;8.69
20490;BMP280;10403;54.092;12.122;2024-03-29T03:08:31;99731.00;;;8.70
20490;BMP280;10403;54.092;12.122;2024-03-29T03:11:16;99743.19;;;8.68
20490;BMP280;10403;54.092;12.122;2024-03-29T03:13:43;99739.75;;;8.66
20490;BMP280;10403;54.092;12.122;2024-03-29T03:16:10;99738.03;;;8.65
20490;BMP280;10403;54.092;12.122;2024-03-29T03:18:36;99724.38;;;8.53
20490;BMP280;10403;54.092;12.122;2024-03-29T03:21:02;99735.53;;;8.62
20490;BMP280;10403;54.092;12.122;2024-03-29T03:23:28;99749.34;;;8.64
20490;BMP280;10403;54.092;12.122;2024-03-29T03:26:01;99747.56;;;8.66
20490;BMP280;10403;54.092;12.122;2024-03-29T03:28:29;99745.00;;;8.64
20490;BMP280;10403;54.092;12.122;2024-03-29T03:30:56;99751.94;;;8.65
20490;BMP280;10403;54.092;12.122;2024-03-29T03:33:22;99755.44;;;8.64
20490;BMP280;10403;54.092;12.122;2024-03-29T03:35:49;99751.97;;;8.64
20490;BMP280;10403;54.092;12.122;2024-03-29T03:38:16;99748.50;;;8.63
20490;BMP280;10403;54.092;12.122;2024-03-29T03:40:42;99760.66;;;8.63
20490;BMP280;10403;54.092;12.122;2024-03-29T03:43:09;99758.97;;;8.62
20490;BMP280;10403;54.092;12.122;2024-03-29T03:45:38;99763.38;;;8.58
20490;BMP280;10403;54.092;12.122;2024-03-29T03:48:06;99772.09;;;8.57
20490;BMP280;10403;54.092;12.122;2024-03-29T03:50:33;99763.50;;;8.52
20490;BMP280;10403;54.092;12.122;2024-03-29T03:53:00;99767.78;;;8.54
20490;BMP280;10403;54.092;12.122;2024-03-29T03:55:26;99761.81;;;8.51
20490;BMP280;10403;54.092;12.122;2024-03-29T03:57:53;99758.34;;;8.50
20490;BMP280;10403;54.092;12.122;2024-03-29T04:00:21;99750.56;;;8.49
20490;BMP280;10403;54.092;12.122;2024-03-29T04:02:52;99746.28;;;8.45
20490;BMP280;10403;54.092;12.122;2024-03-29T04:05:20;99751.50;;;8.45
20490;BMP280;10403;54.092;12.122;2024-03-29T04:07:47;99736.94;;;8.35
20490;BMP280;10403;54.092;12.122;2024-03-29T04:10:14;99758.44;;;8.46
20490;BMP280;10403;54.092;12.122;2024-03-29T04:12:40;99760.22;;;8.44
20490;BMP280;10403;54.092;12.122;2024-03-29T04:15:07;99748.06;;;8.43
20490;BMP280;10403;54.092;12.122;2024-03-29T04:17:34;99736.00;;;8.39
20490;BMP280;10403;54.092;12.122;2024-03-29T04:20:01;99724.78;;;8.35
20490;BMP280;10403;54.092;12.122;2024-03-29T04:22:28;99735.09;;;8.41
20490;BMP280;10403;54.092;12.122;2024-03-29T04:24:54;99739.44;;;8.41
20490;BMP280;10403;54.092;12.122;2024-03-29T04:27:21;99756.81;;;8.40
20490;BMP280;10403;54.092;12.122;2024-03-29T04:29:50;99748.22;;;8.35
20490;BMP280;10403;54.092;12.122;2024-03-29T04:32:17;99757.75;;;8.36
20490;BMP280;10403;54.092;12.122;2024-03-29T04:34:52;99750.06;;;8.30
20490;BMP280;10403;54.092;12.122;2024-03-29T04:37:18;99758.75;;;8.32
20490;BMP280;10403;54.092;12.122;2024-03-29T04:39:46;99768.25;;;8.33
20490;BMP280;10403;54.092;12.122;2024-03-29T04:42:12;99764.84;;;8.28
20490;BMP280;10403;54.092;12.122;2024-03-29T04:44:39;99777.88;;;8.31
20490;BMP280;10403;54.092;12.122;2024-03-29T04:47:05;99767.53;;;8.24
20490;BMP280;10403;54.092;12.122;2024-03-29T04:49:32;99781.34;;;8.29
20490;BMP280;10403;54.092;12.122;2024-03-29T04:52:06;99773.50;;;8.30
20490;BMP280;10403;54.092;12.122;2024-03-29T04:54:33;99778.75;;;8.27
20490;BMP280;10403;54.092;12.122;2024-03-29T04:57:01;99772.66;;;8.28
20490;BMP280;10403;54.092;12.122;2024-03-29T04:59:28;99787.41;;;8.29
20490;BMP280;10403;54.092;12.122;2024-03-29T05:01:56;99781.41;;;8.26
20490;BMP280;10403;54.092;12.122;2024-03-29T05:04:23;99789.19;;;8.27
20490;BMP280;10403;54.092;12.122;2024-03-29T05:06:54;99789.19;;;8.27
20490;BMP280;10403;54.092;12.122;2024-03-29T05:09:21;99771.88;;;8.23
20490;BMP280;10403;54.092;12.122;2024-03-29T05:11:48;99780.53;;;8.25
20490;BMP280;10403;54.092;12.122;2024-03-29T05:14:19;99784.00;;;8.26
20490;BMP280;10403;54.092;12.122;2024-03-29T05:16:47;99773.59;;;8.24
20490;BMP280;10403;54.092;12.122;2024-03-29T05:19:15;99777.91;;;8.27
20490;BMP280;10403;54.092;12.122;2024-03-29T05:21:42;99789.13;;;8.30
20490;BMP280;10403;54.092;12.122;2024-03-29T05:24:08;99780.50;;;8.28
20490;BMP280;10403;54.092;12.122;2024-03-29T05:26:35;99776.97;;;8.32
20490;BMP280;10403;54.092;12.122;2024-03-29T05:29:01;99774.38;;;8.32
20490;BMP280;10403;54.092;12.122;2024-03-29T05:31:30;99780.34;;;8.37
20490;BMP280;10403;54.092;12.122;2024-03-29T05:33:56;99792.44;;;8.40
20490;BMP280;10403;54.092;12.122;2024-03-29T05:36:22;99796.72;;;8.42
20490;BMP280;10403;54.092;12.122;2024-03-29T05:38:49;99790.69;;;8.42
20490;BMP280;10403;54.092;12.122;2024-03-29T05:41:15;99788.78;;;8.48
20490;BMP280;10403;54.092;12.122;2024-03-29T05:43:42;99789.69;;;8.47
20490;BMP280;10403;54.092;12.122;2024-03-29T05:46:08;99800.94;;;8.49
20490;BMP280;10403;54.092;12.122;2024-03-29T05:48:34;99803.50;;;8.51
20490;BMP280;10403;54.092;12.122;2024-03-29T05:51:01;99786.13;;;8.51
20490;BMP280;10403;54.092;12.122;2024-03-29T05:53:27;99793.84;;;8.54
20490;BMP280;10403;54.092;12.122;2024-03-29T05:55:53;99800.75;;;8.57
20490;BMP280;10403;54.092;12.122;2024-03-29T05:58:19;99815.53;;;8.58
20490;BMP280;10403;54.092;12.122;2024-03-29T06:00:47;99823.28;;;8.61
20490;BMP280;10403;54.092;12.122;2024-03-29T06:03:13;99816.38;;;8.59
20490;BMP280;10403;54.092;12.122;2024-03-29T06:05:40;99817.13;;;8.64
20490;BMP280;10403;54.092;12.122;2024-03-29T06:08:08;99808.38;;;8.66
20490;BMP280;10403;54.092;12.122;2024-03-29T06:10:34;99805.75;;;8.68
20490;BMP280;10403;54.092;12.122;2024-03-29T06:13:00;99816.03;;;8.74
20490;BMP280;10403;54.092;12.122;2024-03-29T06:15:47;99835.97;;;8.76
20490;BMP280;10403;54.092;12.122;2024-03-29T06:18:31;99849.84;;;8.78
20490;BMP280;10403;54.092;12.122;2024-03-29T06:20:58;99853.28;;;8.80
20490;BMP280;10403;54.092;12.122;2024-03-29T06:23:25;99851.53;;;8.81
20490;BMP280;10403;54.092;12.122;2024-03-29T06:25:51;99860.16;;;8.83
20490;BMP280;10403;54.092;12.122;2024-03-29T06:28:17;99855.84;;;8.82
20490;BMP280;10403;54.092;12.122;2024-03-29T06:30:43;99864.50;;;8.84
20490;BMP280;10403;54.092;12.122;2024-03-29T06:33:09;99873.16;;;8.86
20490;BMP280;10403;54.092;12.122;2024-03-29T06:35:36;99867.94;;;8.86
20490;BMP280;10403;54.092;12.122;2024-03-29T06:38:02;99859.16;;;8.90
20490;BMP280;10403;54.092;12.122;2024-03-29T06:40:28;99857.38;;;8.92
20490;BMP280;10403;54.092;12.122;2024-03-29T06:42:55;99848.69;;;8.91
20490;BMP280;10403;54.092;12.122;2024-03-29T06:45:24;99866.00;;;8.94
20490;BMP280;10403;54.092;12.122;2024-03-29T06:47:50;99865.97;;;8.97
20490;BMP280;10403;54.092;12.122;2024-03-29T06:50:16;99864.25;;;8.96
20490;BMP280;10403;54.092;12.122;2024-03-29T06:52:42;99864.09;;;9.02
20490;BMP280;10403;54.092;12.122;2024-03-29T06:55:09;99864.91;;;9.06
20490;BMP280;10403;54.092;12.122;2024-03-29T06:57:36;99849.22;;;9.07
20490;BMP280;10403;54.092;12.122;2024-03-29T07:00:03;99856.06;;;9.11
20490;BMP280;10403;54.092;12.122;2024-03-29T07:02:29;99851.69;;;9.13
20490;BMP280;10403;54.092;12.122;2024-03-29T07:04:55;99876.84;;;9.16
20490;BMP280;10403;54.092;12.122;2024-03-29T07:07:22;99869.00;;;9.17
20490;BMP280;10403;54.092;12.122;2024-03-29T07:09:48;99884.59;;;9.20
20490;BMP280;10403;54.092;12.122;2024-03-29T07:12:14;99886.38;;;9.18
20490;BMP280;10403;54.092;12.122;2024-03-29T07:14:41;99896.66;;;9.24
20490;BMP280;10403;54.092;12.122;2024-03-29T07:17:09;99902.66;;;9.30
20490;BMP280;10403;54.092;12.122;2024-03-29T07:19:35;99893.00;;;9.32
20490;BMP280;10403;54.092;12.122;2024-03-29T07:22:03;99893.81;;;9.35
20490;BMP280;10403;54.092;12.122;2024-03-29T07:24:30;99882.56;;;9.32
20490;BMP280;10403;54.092;12.122;2024-03-29T07:26:56;99908.53;;;9.39
20490;BMP280;10403;54.092;12.122;2024-03-29T07:29:22;99885.13;;;9.35
20490;BMP280;10403;54.092;12.122;2024-03-29T07:31:48;99895.38;;;9.42
20490;BMP280;10403;54.092;12.122;2024-03-29T07:34:15;99890.06;;;9.47
20490;BMP280;10403;54.092;12.122;2024-03-29T07:36:41;99898.72;;;9.49
20490;BMP280;10403;54.092;12.122;2024-03-29T07:39:07;99903.06;;;9.50
20490;BMP280;10403;54.092;12.122;2024-03-29T07:41:34;99880.53;;;9.46
20490;BMP280;10403;54.092;12.122;2024-03-29T07:44:00;99887.28;;;9.54
20490;BMP280;10403;54.092;12.122;2024-03-29T07:46:32;99890.69;;;9.58
20490;BMP280;10403;54.092;12.122;2024-03-29T07:48:59;99884.50;;;9.60
20490;BMP280;10403;54.092;12.122;2024-03-29T07:51:26;99883.72;;;9.57
20490;BMP280;10403;54.092;12.122;2024-03-29T07:53:52;99880.13;;;9.61
20490;BMP280;10403;54.092;12.122;2024-03-29T07:56:18;99892.06;;;9.71
20490;BMP280;10403;54.092;12.122;2024-03-29T07:58:44;99897.25;;;9.74
20490;BMP280;10403;54.092;12.122;2024-03-29T08:01:21;99897.19;;;9.77
20490;BMP280;10403;54.092;12.122;2024-03-29T08:03:50;99893.59;;;9.80
20490;BMP280;10403;54.092;12.122;2024-03-29T08:06:17;99891.84;;;9.80
20490;BMP280;10403;54.092;12.122;2024-03-29T08:08:45;99893.50;;;9.84
20490;BMP280;10403;54.092;12.122;2024-03-29T08:11:12;99878.78;;;9.80
20490;BMP280;10403;54.092;12.122;2024-03-29T08:13:40;99903.84;;;9.89
20490;BMP280;10403;54.092;12.122;2024-03-29T08:16:07;99907.25;;;9.91
20490;BMP280;10403;54.092;12.122;2024-03-29T08:18:33;99919.41;;;9.93
20490;BMP280;10403;54.092;12.122;2024-03-29T08:21:00;99920.28;;;9.92
20490;BMP280;10403;54.092;12.122;2024-03-29T08:23:26;99928.94;;;9.94
20490;BMP280;10403;54.092;12.122;2024-03-29T08:25:53;99907.28;;;9.89
20490;BMP280;10403;54.092;12.122;2024-03-29T08:28:22;99915.94;;;9.93
20490;BMP280;10403;54.092;12.122;2024-03-29T08:31:04;99917.66;;;9.94
20490;BMP280;10403;54.092;12.122;2024-03-29T08:33:31;99927.94;;;10.00
20490;BMP280;10403;54.092;12.122;2024-03-29T08:35:58;99922.78;;;9.98
20490;BMP280;10403;54.092;12.122;2024-03-29T08:38:24;99921.94;;;9.96
20490;BMP280;10403;54.092;12.122;2024-03-29T08:40:51;99930.47;;;10.03
20490;BMP280;10403;54.092;12.122;2024-03-29T08:43:17;99927.94;;;10.00
20490;BMP280;10403;54.092;12.122;2024-03-29T08:45:47;99929.50;;;10.09
20490;BMP280;10403;54.092;12.122;2024-03-29T08:48:14;99929.50;;;10.09
20490;BMP280;10403;54.092;12.122;2024-03-29T08:50:40;99933.78;;;10.10
20490;BMP280;10403;54.092;12.122;2024-03-29T08:53:07;99932.81;;;10.14
20490;BMP280;10403;54.092;12.122;2024-03-29T08:55:34;99943.28;;;10.14
20490;BMP280;10403;54.092;12.122;2024-03-29T08:58:02;99935.63;;;10.06
20490;BMP280;10403;54.092;12.122;2024-03-29T09:00:30;99965.88;;;10.18
20490;BMP280;10403;54.092;12.122;2024-03-29T09:02:57;99964.06;;;10.20
20490;BMP280;10403;54.092;12.122;2024-03-29T09:05:23;99957.94;;;10.21
20490;BMP280;10403;54.092;12.122;2024-03-29T09:07:50;99947.41;;;10.24
20490;BMP280;10403;54.092;12.122;2024-03-29T09:10:17;99947.34;;;10.27
20490;BMP280;10403;54.092;12.122;2024-03-29T09:12:43;99947.25;;;10.30
20490;BMP280;10403;54.092;12.122;2024-03-29T09:15:10;99942.91;;;10.29
20490;BMP280;10403;54.092;12.122;2024-03-29T09:17:40;99949.72;;;10.36
20490;BMP280;10403;54.092;12.122;2024-03-29T09:20:07;99933.06;;;10.38
20490;BMP280;10403;54.092;12.122;2024-03-29T09:22:34;99925.19;;;10.40
20490;BMP280;10403;54.092;12.122;2024-03-29T09:25:01;99942.53;;;10.44
20490;BMP280;10403;54.092;12.122;2024-03-29T09:27:27;99947.59;;;10.50
20490;BMP280;10403;54.092;12.122;2024-03-29T09:29:57;99942.25;;;10.55
20490;BMP280;10403;54.092;12.122;2024-03-29T09:32:23;99942.97;;;10.60
20490;BMP280;10403;54.092;12.122;2024-03-29T09:34:50;99941.97;;;10.65
20490;BMP280;10403;54.092;12.122;2024-03-29T09:37:16;99942.59;;;10.73
20490;BMP280;10403;54.092;12.122;2024-03-29T09:39:44;99936.22;;;10.84
20490;BMP280;10403;54.092;12.122;2024-03-29T09:42:16;99930.72;;;10.93
20490;BMP280;10403;54.092;12.122;2024-03-29T09:44:44;99934.66;;;11.07
20490;BMP280;10403;54.092;12.122;2024-03-29T09:47:17;99935.16;;;11.20
20490;BMP280;10403;54.092;12.122;2024-03-29T09:49:44;99937.41;;;11.32
20490;BMP280;10403;54.092;12.122;2024-03-29T09:52:14;99958.97;;;11.40
20490;BMP280;10403;54.092;12.122;2024-03-29T09:54:41;99956.34;;;11.40
20490;BMP280;10403;54.092;12.122;2024-03-29T09:57:09;99943.88;;;11.48
20490;BMP280;10403;54.092;12.122;2024-03-29T09:59:36;99946.41;;;11.52
20490;BMP280;10403;54.092;12.122;2024-03-29T10:02:17;99952.34;;;11.57
20490;BMP280;10403;54.092;12.122;2024-03-29T10:04:48;99938.31;;;11.59
20490;BMP280;10403;54.092;12.122;2024-03-29T10:07:18;99928.69;;;11.60
20490;BMP280;10403;54.092;12.122;2024-03-29T10:09:44;99927.88;;;11.58
20490;BMP280;10403;54.092;12.122;2024-03-29T10:12:11;99926.28;;;11.54
20490;BMP280;10403;54.092;12.122;2024-03-29T10:14:47;99919.38;;;11.51
20490;BMP280;10403;54.092;12.122;2024-03-29T10:17:47;99902.22;;;11.41
20490;BMP280;10403;54.092;12.122;2024-03-29T10:20:17;99928.19;;;11.48
20490;BMP280;10403;54.092;12.122;2024-03-29T10:22:45;99932.50;;;11.49
20490;BMP280;10403;54.092;12.122;2024-03-29T10:25:16;99922.03;;;11.49
20490;BMP280;10403;54.092;12.122;2024-03-29T10:27:42;99918.50;;;11.50
20490;BMP280;10403;54.092;12.122;2024-03-29T10:30:10;99901.13;;;11.48
20490;BMP280;10403;54.092;12.122;2024-03-29T10:32:40;99907.22;;;11.48
20490;BMP280;10403;54.092;12.122;2024-03-29T10:35:08;99899.47;;;11.45
20490;BMP280;10403;54.092;12.122;2024-03-29T10:37:37;99883.22;;;11.36
20490;BMP280;10403;54.092;12.122;2024-03-29T10:40:11;99886.59;;;11.38
20490;BMP280;10403;54.092;12.122;2024-03-29T10:42:41;99885.88;;;11.34
20490;BMP280;10403;54.092;12.122;2024-03-29T10:45:08;99870.25;;;11.31
20490;BMP280;10403;54.092;12.122;2024-03-29T10:47:35;99868.56;;;11.29
20490;BMP280;10403;54.092;12.122;2024-03-29T10:50:02;99850.28;;;11.27
20490;BMP280;10403;54.092;12.122;2024-03-29T10:52:31;99845.94;;;11.26
20490;BMP280;10403;54.092;12.122;2024-03-29T10:54:58;99835.44;;;11.28
20490;BMP280;10403;54.092;12.122;2024-03-29T10:57:27;99830.16;;;11.29
20490;BMP280;10403;54.092;12.122;2024-03-29T11:02:57;99826.44;;;11.36
20490;BMP280;10403;54.092;12.122;2024-03-29T11:05:30;99829.78;;;11.41
20490;BMP280;10403;54.092;12.122;2024-03-29T11:08:03;99830.53;;;11.45
20490;BMP280;10403;54.092;12.122;2024-03-29T11:10:42;99830.34;;;11.51
20490;BMP280;10403;54.092;12.122;2024-03-29T11:16:08;99820.50;;;11.58
20490;BMP280;10403;54.092;12.122;2024-03-29T11:18:37;99824.75;;;11.62
20490;BMP280;10403;54.092;12.122;2024-03-29T11:21:06;99820.31;;;11.64
20490;BMP280;10403;54.092;12.122;2024-03-29T11:23:36;99806.41;;;11.62
20490;BMP280;10403;54.092;12.122;2024-03-29T11:26:03;99800.16;;;11.66
20490;BMP280;10403;54.092;12.122;2024-03-29T11:28:35;99784.66;;;11.60
20490;BMP280;10403;54.092;12.122;2024-03-29T11:31:07;99796.75;;;11.64
20490;BMP280;10403;54.092;12.122;2024-03-29T11:33:57;99799.25;;;11.67
20490;BMP280;10403;54.092;12.122;2024-03-29T11:36:28;99802.03;;;11.62
20490;BMP280;10403;54.092;12.122;2024-03-29T11:38:57;99804.69;;;11.61
20490;BMP280;10403;54.092;12.122;2024-03-29T11:41:26;99804.69;;;11.61
20490;BMP280;10403;54.092;12.122;2024-03-29T11:43:54;99803.84;;;11.60
20490;BMP280;10403;54.092;12.122;2024-03-29T11:46:22;99792.59;;;11.57
20490;BMP280;10403;54.092;12.122;2024-03-29T11:48:49;99804.69;;;11.61
20490;BMP280;10403;54.092;12.122;2024-03-29T11:51:20;99798.66;;;11.59
20490;BMP280;10403;54.092;12.122;2024-03-29T11:53:48;99788.97;;;11.61
20490;BMP280;10403;54.092;12.122;2024-03-29T11:56:18;99789.97;;;11.57
20490;BMP280;10403;54.092;12.122;2024-03-29T11:58:47;99794.13;;;11.64
20490;BMP280;10403;54.092;12.122;2024-03-29T12:01:15;99794.91;;;11.66
20490;BMP280;10403;54.092;12.122;2024-03-29T12:03:42;99803.56;;;11.68
20490;BMP280;10403;54.092;12.122;2024-03-29T12:06:10;99748.66;;;11.40
20490;BMP280;10403;54.092;12.122;2024-03-29T12:08:40;99798.47;;;11.65
20490;BMP280;10403;54.092;12.122;2024-03-29T12:11:09;99814.88;;;11.70
20490;BMP280;10403;54.092;12.122;2024-03-29T12:13:35;99815.69;;;11.72
20490;BMP280;10403;54.092;12.122;2024-03-29T12:16:02;99813.16;;;11.69
20490;BMP280;10403;54.092;12.122;2024-03-29T12:18:29;99822.63;;;11.73
20490;BMP280;10403;54.092;12.122;2024-03-29T12:20:58;99813.06;;;11.72
20490;BMP280;10403;54.092;12.122;2024-03-29T12:23:25;99807.78;;;11.73
20490;BMP280;10403;54.092;12.122;2024-03-29T12:25:57;99810.38;;;11.75
20490;BMP280;10403;54.092;12.122;2024-03-29T12:28:25;99811.88;;;11.82
20490;BMP280;10403;54.092;12.122;2024-03-29T12:30:51;99813.38;;;11.89
20490;BMP280;10403;54.092;12.122;2024-03-29T12:33:21;99822.72;;;11.96
20490;BMP280;10403;54.092;12.122;2024-03-29T12:35:52;99818.16;;;12.03
20490;BMP280;10403;54.092;12.122;2024-03-29T12:38:21;99776.25;;;12.01
20490;BMP280;10403;54.092;12.122;2024-03-29T12:40:50;99787.09;;;12.15
20490;BMP280;10403;54.092;12.122;2024-03-29T12:43:22;99798.19;;;12.23
20490;BMP280;10403;54.092;12.122;2024-03-29T12:45:50;99799.63;;;12.32
20490;BMP280;10403;54.092;12.122;2024-03-29T12:48:19;99785.38;;;12.39
20490;BMP280;10403;54.092;12.122;2024-03-29T12:50:47;99798.28;;;12.44
20490;BMP280;10403;54.092;12.122;2024-03-29T12:53:15;99798.19;;;12.47
20490;BMP280;10403;54.092;12.122;2024-03-29T12:55:45;99803.31;;;12.50
20490;BMP280;10403;54.092;12.122;2024-03-29T12:58:16;99807.53;;;12.54
20490;BMP280;10403;54.092;12.122;2024-03-29T13:00:46;99808.28;;;12.57
20490;BMP280;10403;54.092;12.122;2024-03-29T13:03:12;99807.53;;;12.54
20490;BMP280;10403;54.092;12.122;2024-03-29T13:05:40;99807.53;;;12.54
20490;BMP280;10403;54.092;12.122;2024-03-29T13:08:09;99804.81;;;12.57
20490;BMP280;10403;54.092;12.122;2024-03-29T13:10:38;99805.75;;;12.54
20490;BMP280;10403;54.092;12.122;2024-03-29T13:13:06;99811.75;;;12.58
20490;BMP280;10403;54.092;12.122;2024-03-29T13:15:35;99796.97;;;12.55
20490;BMP280;10403;54.092;12.122;2024-03-29T13:18:03;99808.34;;;12.56
20490;BMP280;10403;54.092;12.122;2024-03-29T13:20:32;99818.78;;;12.57
20490;BMP280;10403;54.092;12.122;2024-03-29T13:22:59;99810.00;;;12.58
20490;BMP280;10403;54.092;12.122;2024-03-29T13:25:26;99833.56;;;12.60
20490;BMP280;10403;54.092;12.122;2024-03-29T13:27:54;99830.06;;;12.59
20490;BMP280;10403;54.092;12.122;2024-03-29T13:30:24;99827.41;;;12.61
20490;BMP280;10403;54.092;12.122;2024-03-29T13:32:52;99808.28;;;12.57
20490;BMP280;10403;54.092;12.122;2024-03-29T13:35:19;99830.81;;;12.63
20490;BMP280;10403;54.092;12.122;2024-03-29T13:37:50;99836.69;;;12.70
20490;BMP280;10403;54.092;12.122;2024-03-29T13:40:21;99826.81;;;12.76
20490;BMP280;10403;54.092;12.122;2024-03-29T13:42:48;99826.72;;;12.79
20490;BMP280;10403;54.092;12.122;2024-03-29T13:45:15;99809.25;;;12.78
20490;BMP280;10403;54.092;12.122;2024-03-29T13:47:44;99821.56;;;12.76
20490;BMP280;10403;54.092;12.122;2024-03-29T13:50:13;99823.38;;;12.74
20490;BMP280;10403;54.092;12.122;2024-03-29T13:52:43;99832.31;;;12.70
20490;BMP280;10403;54.092;12.122;2024-03-29T13:55:10;99842.00;;;12.68
20490;BMP280;10403;54.092;12.122;2024-03-29T13:57:37;99830.94;;;12.60
20490;BMP280;10403;54.092;12.122;2024-03-29T14:00:04;99828.34;;;12.58
20490;BMP280;10403;54.092;12.122;2024-03-29T14:02:31;99823.06;;;12.60
20490;BMP280;10403;54.092;12.122;2024-03-29T14:04:58;99844.84;;;12.62
20490;BMP280;10403;54.092;12.122;2024-03-29T14:07:25;99848.34;;;12.63
20490;BMP280;10403;54.092;12.122;2024-03-29T14:09:52;99851.81;;;12.63
20490;BMP280;10403;54.092;12.122;2024-03-29T14:12:19;99844.06;;;12.60
20490;BMP280;10403;54.092;12.122;2024-03-29T14:14:48;99842.09;;;12.65